Time;durP1;ratioP1;P1;durP2;ratioP2;P2;SDS_P1;SDS_P2;PMS_P1;PMS_P2;Temp;Humidity;BMP_temperature;BMP_pressure;BME280_temperature;BME280_humidity;BME280_pressure;Samples;Min_cycle;Max_cycle;Signal;HPM_P1;HPM_P2
2021/12/26 11:11:28;;;;;;;5.13;4.03;;;-1.60;90.40;;;;;;5082570;27;20867;-66
2021/12/26 11:14:04;;;;;;;5.38;4.43;;;-1.70;92.60;;;;;;5078110;28;20485;-67
2021/12/26 11:16:39;;;;;;;5.78;4.68;;;-1.70;92.70;;;;;;5081841;28;20045;-68
2021/12/26 11:19:05;;;;;;;6.17;4.07;;;-1.60;94.40;;;;;;5082999;28;20692;-67
2021/12/26 11:21:34;;;;;;;4.90;3.93;;;-1.60;94.60;;;;;;5066126;28;20286;-68
2021/12/26 11:24:00;;;;;;;6.03;3.53;;;-1.50;95.20;;;;;;5085569;28;20117;-67
2021/12/26 11:26:26;;;;;;;6.03;4.40;;;-1.50;94.00;;;;;;5085672;28;20290;-68
2021/12/26 11:28:52;;;;;;;7.47;4.50;;;-1.40;94.70;;;;;;5068021;28;20036;-66
2021/12/26 11:31:21;;;;;;;5.87;4.00;;;-1.30;94.80;;;;;;5084356;28;20043;-68
2021/12/26 11:33:49;;;;;;;6.33;4.47;;;-1.30;94.10;;;;;;5082286;28;20913;-69
2021/12/26 11:36:15;;;;;;;7.47;4.00;;;-1.20;94.30;;;;;;5085841;28;20283;-69
2021/12/26 11:38:41;;;;;;;6.27;4.03;;;-1.10;94.30;;;;;;5082627;28;20382;-69
2021/12/26 11:41:22;;;;;;;6.27;4.63;;;-1.00;94.30;;;;;;5047438;28;20450;-69
2021/12/26 11:44:04;;;;;;;5.13;3.75;;;-0.90;90.90;;;;;;5065269;28;20041;-72
2021/12/26 11:46:39;;;;;;;7.82;4.22;;;-0.90;92.70;;;;;;5066453;28;20049;-73
2021/12/26 11:49:45;;;;;;;6.27;4.60;;;-0.90;90.90;;;;;;5058420;28;20052;-71
2021/12/26 11:52:58;;;;;;;5.83;3.80;;;-0.80;92.70;;;;;;5076522;28;20291;-71
2021/12/26 11:55:29;;;;;;;6.47;4.20;;;-0.70;93.50;;;;;;5035359;28;20339;-70
2021/12/26 11:58:16;;;;;;;6.15;4.05;;;-0.70;91.50;;;;;;5085635;28;20311;-71
2021/12/26 12:00:49;;;;;;;7.27;4.63;;;-0.70;90.50;;;;;;5073818;28;20053;-69
2021/12/26 12:03:27;;;;;;;6.27;3.93;;;-0.60;92.50;;;;;;5051082;28;20295;-69
2021/12/26 12:05:53;;;;;;;5.57;3.97;;;-0.60;92.50;;;;;;5053002;28;20349;-71
2021/12/26 12:08:34;;;;;;;6.20;4.10;;;-0.50;92.10;;;;;;5085476;28;20321;-67
2021/12/26 12:10:59;;;;;;;5.93;3.80;;;-0.40;91.90;;;;;;5085385;28;20344;-67
2021/12/26 12:13:25;;;;;;;5.40;3.50;;;-0.40;90.40;;;;;;5084222;28;20282;-69
2021/12/26 12:15:55;;;;;;;6.27;3.87;;;-0.50;88.00;;;;;;5085000;28;20051;-69
2021/12/26 12:18:30;;;;;;;7.77;4.47;;;-0.40;91.10;;;;;;5085216;28;20044;-69
2021/12/26 12:21:11;;;;;;;5.30;3.47;;;-0.40;90.10;;;;;;5061742;28;20295;-70
2021/12/26 12:24:01;;;;;;;4.95;4.05;;;-0.40;90.50;;;;;;5053130;28;20298;-67
2021/12/26 12:26:40;;;;;;;6.83;3.83;;;-0.30;90.70;;;;;;5053428;28;20086;-69
2021/12/26 12:29:06;;;;;;;5.97;4.57;;;-0.30;90.80;;;;;;5070724;28;20769;-68
2021/12/26 12:31:32;;;;;;;9.17;4.13;;;-0.30;89.40;;;;;;5071073;28;20283;-68
2021/12/26 12:34:04;;;;;;;6.90;4.57;;;-0.30;90.20;;;;;;5070820;28;20814;-70
2021/12/26 12:36:31;;;;;;;;;;;-0.20;90.70;;;;;;5053552;28;20481;-70
2021/12/26 12:39:19;;;;;;;6.70;4.00;;;-0.20;84.30;;;;;;5053686;28;19920;-70
2021/12/26 12:41:52;;;;;;;8.23;4.13;;;-0.10;90.40;;;;;;5070226;28;20282;-71
2021/12/26 12:44:34;;;;;;;6.67;4.13;;;-0.10;91.00;;;;;;5071093;28;20279;-71
2021/12/26 12:47:04;;;;;;;;;;;-0.10;89.90;;;;;;5053809;28;20568;-71
2021/12/26 12:49:44;;;;;;;6.07;3.67;;;-0.10;88.00;;;;;;5070062;28;19928;-74
2021/12/26 12:52:44;;;;;;;8.87;4.70;;;0.00;90.80;;;;;;5053187;28;20778;-72
2021/12/26 12:55:10;;;;;;;6.83;4.07;;;0.00;90.30;;;;;;5070259;28;21204;-70
2021/12/26 12:57:42;;;;;;;7.70;3.77;;;0.10;90.90;;;;;;5053054;28;20291;-68
2021/12/26 13:00:23;;;;;;;8.57;4.47;;;0.10;91.10;;;;;;5053243;28;20468;-70
2021/12/26 13:02:49;;;;;;;7.90;4.10;;;0.10;90.30;;;;;;5070230;28;20294;-70
2021/12/26 13:05:35;;;;;;;7.77;4.50;;;0.10;90.50;;;;;;5053430;28;20331;-73
2021/12/26 13:08:03;;;;;;;6.80;4.30;;;0.20;90.50;;;;;;5052938;28;20652;-67
2021/12/26 13:10:30;;;;;;;6.67;4.50;;;0.20;90.10;;;;;;5069625;28;20367;-66
2021/12/26 13:13:07;;;;;;;6.57;4.17;;;0.20;90.30;;;;;;5070885;28;20397;-66
2021/12/26 13:15:36;;;;;;;8.00;4.70;;;0.30;90.30;;;;;;5052546;28;20881;-66
2021/12/26 13:18:07;;;;;;;6.97;4.27;;;0.30;90.20;;;;;;5051967;28;20286;-67
2021/12/26 13:20:33;;;;;;;6.80;4.38;;;0.30;90.30;;;;;;5070442;28;20293;-67
2021/12/26 13:23:04;;;;;;;5.80;3.43;;;0.40;89.50;;;;;;5070149;28;20044;-67
2021/12/26 13:25:32;;;;;;;;;;;0.40;90.10;;;;;;5070397;28;20040;-66
2021/12/26 13:28:00;;;;;;;5.20;4.47;;;0.40;88.20;;;;;;5070049;28;20439;-67
2021/12/26 13:30:27;;;;;;;6.47;4.13;;;0.50;90.30;;;;;;5051332;28;20409;-70
2021/12/26 13:32:54;;;;;;;7.13;3.90;;;0.50;90.60;;;;;;5069477;28;20624;-67
2021/12/26 13:35:29;;;;;;;7.50;3.80;;;0.60;90.70;;;;;;5070388;28;20282;-68
2021/12/26 13:37:59;;;;;;;6.07;3.73;;;0.60;90.20;;;;;;5051611;28;20275;-67
2021/12/26 13:40:25;;;;;;;5.77;4.67;;;0.60;90.00;;;;;;5051918;28;20294;-69
2021/12/26 13:42:51;;;;;;;5.17;3.30;;;0.60;89.30;;;;;;5070302;28;20286;-68
2021/12/26 13:45:31;;;;;;;6.50;3.90;;;0.60;90.00;;;;;;5069402;28;20805;-68
2021/12/26 13:47:57;;;;;;;6.33;3.60;;;0.60;88.50;;;;;;5069966;28;20775;-67
2021/12/26 13:50:23;;;;;;;5.90;3.37;;;0.60;89.70;;;;;;5069573;28;20311;-66
2021/12/26 13:52:59;;;;;;;4.70;3.43;;;0.60;90.00;;;;;;5069343;28;20044;-67
2021/12/26 13:55:25;;;;;;;5.80;3.93;;;0.60;88.50;;;;;;5051905;28;20048;-67
2021/12/26 13:57:59;;;;;;;6.20;3.83;;;0.60;88.80;;;;;;5069772;28;20642;-66
2021/12/26 14:00:25;;;;;;;5.67;3.77;;;0.60;88.40;;;;;;5050610;28;20305;-66
2021/12/26 14:02:51;;;;;;;4.97;3.67;;;0.60;86.30;;;;;;5069524;28;20664;-66
2021/12/26 14:05:18;;;;;;;6.77;3.37;;;0.60;87.50;;;;;;5068963;28;20282;-66
2021/12/26 14:07:49;;;;;;;5.80;3.77;;;0.60;89.50;;;;;;5069352;28;20067;-66
2021/12/26 14:10:20;;;;;;;5.53;3.37;;;0.60;88.50;;;;;;5069188;28;20668;-66
2021/12/26 14:12:52;;;;;;;6.13;3.53;;;0.50;88.50;;;;;;5068587;28;20302;-66
2021/12/26 14:15:30;;;;;;;5.18;3.65;;;0.50;89.00;;;;;;5069679;28;20048;-66
2021/12/26 14:18:06;;;;;;;8.13;3.93;;;0.50;89.00;;;;;;5069581;28;20131;-65
2021/12/26 14:20:45;;;;;;;6.87;3.90;;;0.40;89.00;;;;;;5050860;28;20286;-66
2021/12/26 14:23:27;;;;;;;5.90;3.70;;;0.40;88.80;;;;;;5069560;28;20299;-66
2021/12/26 14:26:09;;;;;;;7.70;4.32;;;0.40;88.90;;;;;;5069870;28;20785;-65
2021/12/26 14:28:43;;;;;;;6.83;4.03;;;0.40;88.10;;;;;;5067189;28;20086;-66
